sensor_id;sensor_type;location;lat;lon;timestamp;P1;durP1;ratioP1;P2;durP2;ratioP2
38805;SDS011;25635;51.146;17.162;2022-11-09T00:00:54;28.15;;;16.67;;
38805;SDS011;25635;51.146;17.162;2022-11-09T00:03:24;28.12;;;17.65;;
38805;SDS011;25635;51.146;17.162;2022-11-09T00:05:58;26.55;;;17.25;;
38805;SDS011;25635;51.146;17.162;2022-11-09T00:08:23;28.62;;;18.85;;
38805;SDS011;25635;51.146;17.162;2022-11-09T00:10:49;28.85;;;18.17;;
38805;SDS011;25635;51.146;17.162;2022-11-09T00:13:15;27.75;;;17.87;;
38805;SDS011;25635;51.146;17.162;2022-11-09T00:15:42;27.50;;;17.27;;
38805;SDS011;25635;51.146;17.162;2022-11-09T00:18:08;26.50;;;17.87;;
38805;SDS011;25635;51.146;17.162;2022-11-09T00:20:34;28.17;;;18.50;;
38805;SDS011;25635;51.146;17.162;2022-11-09T00:23:00;29.35;;;18.00;;
38805;SDS011;25635;51.146;17.162;2022-11-09T00:25:26;25.40;;;16.47;;
38805;SDS011;25635;51.146;17.162;2022-11-09T00:27:53;26.70;;;17.70;;
38805;SDS011;25635;51.146;17.162;2022-11-09T00:30:19;28.87;;;17.77;;
38805;SDS011;25635;51.146;17.162;2022-11-09T00:32:45;29.15;;;18.00;;
38805;SDS011;25635;51.146;17.162;2022-11-09T00:35:12;28.32;;;18.85;;
38805;SDS011;25635;51.146;17.162;2022-11-09T00:37:38;28.95;;;18.02;;
38805;SDS011;25635;51.146;17.162;2022-11-09T00:40:05;27.37;;;18.52;;
38805;SDS011;25635;51.146;17.162;2022-11-09T00:42:33;27.00;;;17.67;;
38805;SDS011;25635;51.146;17.162;2022-11-09T00:44:59;30.23;;;18.45;;
38805;SDS011;25635;51.146;17.162;2022-11-09T00:47:25;29.55;;;18.48;;
38805;SDS011;25635;51.146;17.162;2022-11-09T00:49:51;27.13;;;18.40;;
38805;SDS011;25635;51.146;17.162;2022-11-09T00:52:18;26.55;;;17.60;;
38805;SDS011;25635;51.146;17.162;2022-11-09T00:54:44;28.38;;;17.77;;
38805;SDS011;25635;51.146;17.162;2022-11-09T00:57:11;28.60;;;18.60;;
38805;SDS011;25635;51.146;17.162;2022-11-09T00:59:38;29.50;;;18.97;;
38805;SDS011;25635;51.146;17.162;2022-11-09T01:02:05;29.10;;;19.10;;
38805;SDS011;25635;51.146;17.162;2022-11-09T01:04:31;29.10;;;18.05;;
38805;SDS011;25635;51.146;17.162;2022-11-09T01:06:57;27.87;;;17.85;;
38805;SDS011;25635;51.146;17.162;2022-11-09T01:09:23;28.38;;;18.17;;
38805;SDS011;25635;51.146;17.162;2022-11-09T01:11:50;30.52;;;18.65;;
38805;SDS011;25635;51.146;17.162;2022-11-09T01:14:16;26.35;;;16.42;;
38805;SDS011;25635;51.146;17.162;2022-11-09T01:16:43;26.13;;;17.43;;
38805;SDS011;25635;51.146;17.162;2022-11-09T01:19:10;26.53;;;18.17;;
38805;SDS011;25635;51.146;17.162;2022-11-09T01:21:36;29.03;;;18.63;;
38805;SDS011;25635;51.146;17.162;2022-11-09T01:24:03;28.93;;;19.23;;
38805;SDS011;25635;51.146;17.162;2022-11-09T01:26:29;29.83;;;20.23;;
38805;SDS011;25635;51.146;17.162;2022-11-09T01:28:56;29.83;;;19.83;;
38805;SDS011;25635;51.146;17.162;2022-11-09T01:31:22;30.13;;;19.83;;
38805;SDS011;25635;51.146;17.162;2022-11-09T01:33:49;30.13;;;19.53;;
38805;SDS011;25635;51.146;17.162;2022-11-09T01:36:16;28.70;;;18.40;;
38805;SDS011;25635;51.146;17.162;2022-11-09T01:38:46;30.70;;;19.80;;
38805;SDS011;25635;51.146;17.162;2022-11-09T01:41:22;29.73;;;18.90;;
38805;SDS011;25635;51.146;17.162;2022-11-09T01:46:48;29.23;;;19.47;;
38805;SDS011;25635;51.146;17.162;2022-11-09T01:49:23;30.67;;;19.90;;
38805;SDS011;25635;51.146;17.162;2022-11-09T01:52:31;34.63;;;21.20;;
38805;SDS011;25635;51.146;17.162;2022-11-09T01:55:01;32.93;;;20.20;;
38805;SDS011;25635;51.146;17.162;2022-11-09T01:57:33;31.77;;;19.50;;
38805;SDS011;25635;51.146;17.162;2022-11-09T02:00:22;31.73;;;19.20;;
38805;SDS011;25635;51.146;17.162;2022-11-09T02:02:50;34.10;;;20.23;;
38805;SDS011;25635;51.146;17.162;2022-11-09T02:05:30;30.97;;;19.87;;
38805;SDS011;25635;51.146;17.162;2022-11-09T02:08:00;32.33;;;19.50;;
38805;SDS011;25635;51.146;17.162;2022-11-09T02:10:36;31.20;;;20.23;;
38805;SDS011;25635;51.146;17.162;2022-11-09T02:13:26;32.20;;;20.10;;
38805;SDS011;25635;51.146;17.162;2022-11-09T02:15:55;29.27;;;19.50;;
38805;SDS011;25635;51.146;17.162;2022-11-09T02:18:21;29.83;;;20.03;;
38805;SDS011;25635;51.146;17.162;2022-11-09T02:20:48;32.77;;;19.77;;
38805;SDS011;25635;51.146;17.162;2022-11-09T02:23:17;28.23;;;18.57;;
38805;SDS011;25635;51.146;17.162;2022-11-09T02:25:49;29.50;;;18.93;;
38805;SDS011;25635;51.146;17.162;2022-11-09T02:28:18;29.93;;;18.47;;
38805;SDS011;25635;51.146;17.162;2022-11-09T02:30:45;27.87;;;18.23;;
38805;SDS011;25635;51.146;17.162;2022-11-09T02:33:16;30.77;;;19.83;;
38805;SDS011;25635;51.146;17.162;2022-11-09T02:35:42;27.40;;;18.30;;
38805;SDS011;25635;51.146;17.162;2022-11-09T02:38:09;28.03;;;18.33;;
38805;SDS011;25635;51.146;17.162;2022-11-09T02:40:39;32.70;;;20.13;;
38805;SDS011;25635;51.146;17.162;2022-11-09T02:43:09;29.30;;;19.27;;
38805;SDS011;25635;51.146;17.162;2022-11-09T02:45:36;30.70;;;19.47;;
38805;SDS011;25635;51.146;17.162;2022-11-09T02:48:03;31.83;;;19.50;;
38805;SDS011;25635;51.146;17.162;2022-11-09T02:50:30;31.13;;;20.37;;
38805;SDS011;25635;51.146;17.162;2022-11-09T02:52:56;33.77;;;18.60;;
38805;SDS011;25635;51.146;17.162;2022-11-09T02:55:23;30.63;;;19.43;;
38805;SDS011;25635;51.146;17.162;2022-11-09T02:57:49;32.77;;;19.43;;
38805;SDS011;25635;51.146;17.162;2022-11-09T03:00:15;29.07;;;19.10;;
38805;SDS011;25635;51.146;17.162;2022-11-09T03:02:42;27.00;;;17.60;;
38805;SDS011;25635;51.146;17.162;2022-11-09T03:05:08;27.87;;;18.47;;
38805;SDS011;25635;51.146;17.162;2022-11-09T03:07:34;30.40;;;19.27;;
38805;SDS011;25635;51.146;17.162;2022-11-09T03:10:01;32.73;;;21.30;;
38805;SDS011;25635;51.146;17.162;2022-11-09T03:12:27;30.40;;;19.17;;
38805;SDS011;25635;51.146;17.162;2022-11-09T03:14:54;30.97;;;19.30;;
38805;SDS011;25635;51.146;17.162;2022-11-09T03:17:23;30.80;;;20.10;;
38805;SDS011;25635;51.146;17.162;2022-11-09T03:19:49;31.03;;;19.67;;
38805;SDS011;25635;51.146;17.162;2022-11-09T03:22:16;29.73;;;18.83;;
38805;SDS011;25635;51.146;17.162;2022-11-09T03:24:42;30.57;;;18.67;;
38805;SDS011;25635;51.146;17.162;2022-11-09T03:27:09;28.73;;;18.03;;
38805;SDS011;25635;51.146;17.162;2022-11-09T03:29:35;30.60;;;19.77;;
38805;SDS011;25635;51.146;17.162;2022-11-09T03:32:02;30.47;;;19.80;;
38805;SDS011;25635;51.146;17.162;2022-11-09T03:34:29;28.90;;;18.97;;
38805;SDS011;25635;51.146;17.162;2022-11-09T03:36:55;30.63;;;19.73;;
38805;SDS011;25635;51.146;17.162;2022-11-09T03:39:21;32.20;;;19.77;;
38805;SDS011;25635;51.146;17.162;2022-11-09T03:41:48;32.63;;;20.20;;
38805;SDS011;25635;51.146;17.162;2022-11-09T03:44:14;29.90;;;19.03;;
38805;SDS011;25635;51.146;17.162;2022-11-09T03:46:40;30.73;;;19.47;;
38805;SDS011;25635;51.146;17.162;2022-11-09T03:49:06;29.47;;;17.73;;
38805;SDS011;25635;51.146;17.162;2022-11-09T03:51:33;29.70;;;18.13;;
38805;SDS011;25635;51.146;17.162;2022-11-09T03:53:59;29.70;;;19.10;;
38805;SDS011;25635;51.146;17.162;2022-11-09T03:56:25;28.93;;;19.00;;
38805;SDS011;25635;51.146;17.162;2022-11-09T03:58:51;27.30;;;17.73;;
38805;SDS011;25635;51.146;17.162;2022-11-09T04:01:18;28.27;;;18.53;;
38805;SDS011;25635;51.146;17.162;2022-11-09T04:03:44;27.97;;;16.97;;
38805;SDS011;25635;51.146;17.162;2022-11-09T04:06:13;26.00;;;16.67;;
38805;SDS011;25635;51.146;17.162;2022-11-09T04:08:39;31.10;;;20.27;;
38805;SDS011;25635;51.146;17.162;2022-11-09T04:11:05;32.37;;;19.70;;
38805;SDS011;25635;51.146;17.162;2022-11-09T04:13:31;29.10;;;17.53;;
38805;SDS011;25635;51.146;17.162;2022-11-09T04:15:58;26.77;;;16.27;;
38805;SDS011;25635;51.146;17.162;2022-11-09T04:18:24;27.27;;;17.37;;
38805;SDS011;25635;51.146;17.162;2022-11-09T04:20:50;31.93;;;19.87;;
38805;SDS011;25635;51.146;17.162;2022-11-09T04:23:16;31.23;;;18.93;;
38805;SDS011;25635;51.146;17.162;2022-11-09T04:25:43;30.07;;;18.80;;
38805;SDS011;25635;51.146;17.162;2022-11-09T04:28:10;29.63;;;17.47;;
38805;SDS011;25635;51.146;17.162;2022-11-09T04:30:37;29.20;;;17.83;;
38805;SDS011;25635;51.146;17.162;2022-11-09T04:33:03;27.67;;;17.80;;
38805;SDS011;25635;51.146;17.162;2022-11-09T04:35:31;27.57;;;17.67;;
38805;SDS011;25635;51.146;17.162;2022-11-09T04:37:59;24.87;;;16.20;;
38805;SDS011;25635;51.146;17.162;2022-11-09T04:40:29;25.00;;;15.00;;
38805;SDS011;25635;51.146;17.162;2022-11-09T04:42:58;22.73;;;14.53;;
38805;SDS011;25635;51.146;17.162;2022-11-09T04:45:27;24.23;;;15.60;;
38805;SDS011;25635;51.146;17.162;2022-11-09T04:47:57;28.57;;;17.83;;
38805;SDS011;25635;51.146;17.162;2022-11-09T04:50:25;29.97;;;18.87;;
38805;SDS011;25635;51.146;17.162;2022-11-09T04:52:52;27.73;;;16.77;;
38805;SDS011;25635;51.146;17.162;2022-11-09T04:55:19;29.23;;;16.33;;
38805;SDS011;25635;51.146;17.162;2022-11-09T04:57:45;30.33;;;17.63;;
38805;SDS011;25635;51.146;17.162;2022-11-09T05:00:12;29.30;;;18.07;;
38805;SDS011;25635;51.146;17.162;2022-11-09T05:02:38;29.87;;;18.53;;
38805;SDS011;25635;51.146;17.162;2022-11-09T05:05:05;36.40;;;19.87;;
38805;SDS011;25635;51.146;17.162;2022-11-09T05:07:32;30.80;;;19.67;;
38805;SDS011;25635;51.146;17.162;2022-11-09T05:09:58;31.20;;;19.97;;
38805;SDS011;25635;51.146;17.162;2022-11-09T05:12:24;28.60;;;17.77;;
38805;SDS011;25635;51.146;17.162;2022-11-09T05:14:50;31.70;;;20.30;;
38805;SDS011;25635;51.146;17.162;2022-11-09T05:17:17;34.43;;;20.87;;
38805;SDS011;25635;51.146;17.162;2022-11-09T05:19:43;34.77;;;21.23;;
38805;SDS011;25635;51.146;17.162;2022-11-09T05:22:09;35.20;;;21.83;;
38805;SDS011;25635;51.146;17.162;2022-11-09T05:24:54;34.13;;;22.20;;
38805;SDS011;25635;51.146;17.162;2022-11-09T05:27:20;31.43;;;19.93;;
38805;SDS011;25635;51.146;17.162;2022-11-09T05:29:46;32.60;;;20.07;;
38805;SDS011;25635;51.146;17.162;2022-11-09T05:32:12;31.47;;;19.57;;
38805;SDS011;25635;51.146;17.162;2022-11-09T05:34:39;37.97;;;20.63;;
38805;SDS011;25635;51.146;17.162;2022-11-09T05:37:05;30.83;;;19.33;;
38805;SDS011;25635;51.146;17.162;2022-11-09T05:39:31;34.13;;;20.40;;
38805;SDS011;25635;51.146;17.162;2022-11-09T05:41:57;31.13;;;19.90;;
38805;SDS011;25635;51.146;17.162;2022-11-09T05:44:24;33.33;;;20.50;;
38805;SDS011;25635;51.146;17.162;2022-11-09T05:46:50;33.00;;;20.67;;
38805;SDS011;25635;51.146;17.162;2022-11-09T05:49:16;31.83;;;20.10;;
38805;SDS011;25635;51.146;17.162;2022-11-09T05:51:42;37.53;;;22.20;;
38805;SDS011;25635;51.146;17.162;2022-11-09T05:54:08;34.83;;;20.97;;
38805;SDS011;25635;51.146;17.162;2022-11-09T05:56:35;35.90;;;19.90;;
38805;SDS011;25635;51.146;17.162;2022-11-09T05:59:01;30.63;;;19.97;;
38805;SDS011;25635;51.146;17.162;2022-11-09T06:01:27;31.70;;;19.00;;
38805;SDS011;25635;51.146;17.162;2022-11-09T06:03:53;32.90;;;20.27;;
38805;SDS011;25635;51.146;17.162;2022-11-09T06:06:19;32.50;;;19.57;;
38805;SDS011;25635;51.146;17.162;2022-11-09T06:08:46;32.67;;;20.60;;
38805;SDS011;25635;51.146;17.162;2022-11-09T06:11:12;30.43;;;19.53;;
38805;SDS011;25635;51.146;17.162;2022-11-09T06:13:39;31.80;;;19.97;;
38805;SDS011;25635;51.146;17.162;2022-11-09T06:16:05;34.43;;;21.43;;
38805;SDS011;25635;51.146;17.162;2022-11-09T06:18:34;31.70;;;20.37;;
38805;SDS011;25635;51.146;17.162;2022-11-09T06:21:02;33.13;;;19.77;;
38805;SDS011;25635;51.146;17.162;2022-11-09T06:23:30;29.20;;;18.63;;
38805;SDS011;25635;51.146;17.162;2022-11-09T06:25:58;30.97;;;18.03;;
38805;SDS011;25635;51.146;17.162;2022-11-09T06:28:31;29.40;;;18.83;;
38805;SDS011;25635;51.146;17.162;2022-11-09T06:30:58;29.13;;;18.10;;
38805;SDS011;25635;51.146;17.162;2022-11-09T06:33:25;30.23;;;19.10;;
38805;SDS011;25635;51.146;17.162;2022-11-09T06:35:55;32.00;;;20.13;;
38805;SDS011;25635;51.146;17.162;2022-11-09T06:38:22;28.57;;;18.03;;
38805;SDS011;25635;51.146;17.162;2022-11-09T06:40:51;28.97;;;17.97;;
38805;SDS011;25635;51.146;17.162;2022-11-09T06:43:19;28.43;;;17.40;;
38805;SDS011;25635;51.146;17.162;2022-11-09T06:45:46;28.07;;;17.60;;
38805;SDS011;25635;51.146;17.162;2022-11-09T06:48:12;25.03;;;15.97;;
38805;SDS011;25635;51.146;17.162;2022-11-09T06:50:39;23.43;;;15.27;;
38805;SDS011;25635;51.146;17.162;2022-11-09T06:53:06;27.50;;;16.57;;
38805;SDS011;25635;51.146;17.162;2022-11-09T06:55:35;31.80;;;19.13;;
38805;SDS011;25635;51.146;17.162;2022-11-09T06:58:06;35.77;;;22.93;;
38805;SDS011;25635;51.146;17.162;2022-11-09T07:00:35;35.63;;;21.03;;
38805;SDS011;25635;51.146;17.162;2022-11-09T07:03:02;31.00;;;19.67;;
38805;SDS011;25635;51.146;17.162;2022-11-09T07:05:28;31.23;;;19.80;;
38805;SDS011;25635;51.146;17.162;2022-11-09T07:07:55;33.50;;;20.47;;
38805;SDS011;25635;51.146;17.162;2022-11-09T07:10:22;33.03;;;20.40;;
38805;SDS011;25635;51.146;17.162;2022-11-09T07:12:49;35.63;;;22.13;;
38805;SDS011;25635;51.146;17.162;2022-11-09T07:15:15;39.77;;;23.63;;
38805;SDS011;25635;51.146;17.162;2022-11-09T07:17:43;36.00;;;23.77;;
38805;SDS011;25635;51.146;17.162;2022-11-09T07:20:10;35.43;;;22.17;;
38805;SDS011;25635;51.146;17.162;2022-11-09T07:22:38;33.07;;;20.13;;
38805;SDS011;25635;51.146;17.162;2022-11-09T07:25:07;33.90;;;20.63;;
38805;SDS011;25635;51.146;17.162;2022-11-09T07:27:35;40.33;;;24.27;;
38805;SDS011;25635;51.146;17.162;2022-11-09T07:30:02;40.40;;;24.53;;
38805;SDS011;25635;51.146;17.162;2022-11-09T07:32:31;45.23;;;26.27;;
38805;SDS011;25635;51.146;17.162;2022-11-09T07:35:01;38.87;;;23.50;;
38805;SDS011;25635;51.146;17.162;2022-11-09T07:37:29;38.93;;;23.97;;
38805;SDS011;25635;51.146;17.162;2022-11-09T07:39:56;37.87;;;23.53;;
38805;SDS011;25635;51.146;17.162;2022-11-09T07:42:22;37.27;;;22.33;;
38805;SDS011;25635;51.146;17.162;2022-11-09T07:44:49;35.70;;;22.37;;
38805;SDS011;25635;51.146;17.162;2022-11-09T07:47:16;37.93;;;22.97;;
38805;SDS011;25635;51.146;17.162;2022-11-09T07:49:44;39.37;;;24.10;;
38805;SDS011;25635;51.146;17.162;2022-11-09T07:52:11;37.77;;;24.17;;
38805;SDS011;25635;51.146;17.162;2022-11-09T07:54:38;39.13;;;24.10;;
38805;SDS011;25635;51.146;17.162;2022-11-09T07:57:05;39.90;;;24.80;;
38805;SDS011;25635;51.146;17.162;2022-11-09T07:59:32;46.53;;;27.90;;
38805;SDS011;25635;51.146;17.162;2022-11-09T08:01:58;39.07;;;24.33;;
38805;SDS011;25635;51.146;17.162;2022-11-09T08:04:24;37.60;;;23.57;;
38805;SDS011;25635;51.146;17.162;2022-11-09T08:06:51;37.17;;;22.93;;
38805;SDS011;25635;51.146;17.162;2022-11-09T08:09:17;35.98;;;23.18;;
38805;SDS011;25635;51.146;17.162;2022-11-09T08:11:44;39.00;;;24.03;;
38805;SDS011;25635;51.146;17.162;2022-11-09T08:14:11;37.30;;;23.27;;
38805;SDS011;25635;51.146;17.162;2022-11-09T08:16:37;35.85;;;22.93;;
38805;SDS011;25635;51.146;17.162;2022-11-09T08:19:03;39.75;;;24.87;;
38805;SDS011;25635;51.146;17.162;2022-11-09T08:21:33;38.67;;;25.37;;
38805;SDS011;25635;51.146;17.162;2022-11-09T08:24:01;39.60;;;25.75;;
38805;SDS011;25635;51.146;17.162;2022-11-09T08:26:27;37.10;;;23.32;;
38805;SDS011;25635;51.146;17.162;2022-11-09T08:28:54;40.48;;;23.00;;
38805;SDS011;25635;51.146;17.162;2022-11-09T08:31:20;37.50;;;22.00;;
38805;SDS011;25635;51.146;17.162;2022-11-09T08:33:46;33.90;;;22.32;;
38805;SDS011;25635;51.146;17.162;2022-11-09T08:36:14;34.65;;;22.55;;
38805;SDS011;25635;51.146;17.162;2022-11-09T08:38:43;35.00;;;22.27;;
38805;SDS011;25635;51.146;17.162;2022-11-09T08:41:10;42.73;;;24.87;;
38805;SDS011;25635;51.146;17.162;2022-11-09T08:43:38;37.80;;;23.90;;
38805;SDS011;25635;51.146;17.162;2022-11-09T08:46:04;34.00;;;21.85;;
38805;SDS011;25635;51.146;17.162;2022-11-09T08:48:30;33.33;;;22.07;;
38805;SDS011;25635;51.146;17.162;2022-11-09T08:50:57;31.40;;;20.70;;
38805;SDS011;25635;51.146;17.162;2022-11-09T08:53:25;33.95;;;21.40;;
38805;SDS011;25635;51.146;17.162;2022-11-09T08:55:54;35.00;;;21.10;;
38805;SDS011;25635;51.146;17.162;2022-11-09T08:58:20;33.48;;;21.12;;
38805;SDS011;25635;51.146;17.162;2022-11-09T09:00:46;30.80;;;19.62;;
38805;SDS011;25635;51.146;17.162;2022-11-09T09:03:13;29.48;;;19.77;;
38805;SDS011;25635;51.146;17.162;2022-11-09T09:05:39;32.43;;;20.67;;
38805;SDS011;25635;51.146;17.162;2022-11-09T09:08:06;34.90;;;22.32;;
38805;SDS011;25635;51.146;17.162;2022-11-09T09:10:33;32.70;;;21.48;;
38805;SDS011;25635;51.146;17.162;2022-11-09T09:13:02;35.17;;;22.50;;
38805;SDS011;25635;51.146;17.162;2022-11-09T09:15:29;32.65;;;21.48;;
38805;SDS011;25635;51.146;17.162;2022-11-09T09:17:57;32.80;;;20.50;;
38805;SDS011;25635;51.146;17.162;2022-11-09T09:20:25;33.38;;;21.15;;
38805;SDS011;25635;51.146;17.162;2022-11-09T09:22:52;33.10;;;20.80;;
38805;SDS011;25635;51.146;17.162;2022-11-09T09:25:18;32.00;;;20.15;;
38805;SDS011;25635;51.146;17.162;2022-11-09T09:27:44;30.43;;;20.55;;
38805;SDS011;25635;51.146;17.162;2022-11-09T09:30:11;31.85;;;19.35;;
38805;SDS011;25635;51.146;17.162;2022-11-09T09:32:38;30.90;;;19.75;;
38805;SDS011;25635;51.146;17.162;2022-11-09T09:35:05;31.40;;;20.30;;
38805;SDS011;25635;51.146;17.162;2022-11-09T09:37:31;29.77;;;19.92;;
38805;SDS011;25635;51.146;17.162;2022-11-09T09:39:58;29.15;;;19.65;;
38805;SDS011;25635;51.146;17.162;2022-11-09T09:42:34;33.67;;;21.57;;
38805;SDS011;25635;51.146;17.162;2022-11-09T09:45:07;29.60;;;19.48;;
38805;SDS011;25635;51.146;17.162;2022-11-09T09:47:47;30.75;;;19.25;;
38805;SDS011;25635;51.146;17.162;2022-11-09T09:50:24;29.77;;;20.20;;
38805;SDS011;25635;51.146;17.162;2022-11-09T09:53:02;28.52;;;18.45;;
38805;SDS011;25635;51.146;17.162;2022-11-09T09:55:46;31.97;;;20.43;;
38805;SDS011;25635;51.146;17.162;2022-11-09T09:58:25;31.35;;;20.80;;
38805;SDS011;25635;51.146;17.162;2022-11-09T10:01:02;30.05;;;19.35;;
38805;SDS011;25635;51.146;17.162;2022-11-09T10:03:36;28.95;;;20.02;;
38805;SDS011;25635;51.146;17.162;2022-11-09T10:08:52;26.27;;;17.87;;
38805;SDS011;25635;51.146;17.162;2022-11-09T10:17:37;26.12;;;18.50;;
38805;SDS011;25635;51.146;17.162;2022-11-09T10:23:18;25.32;;;17.65;;
38805;SDS011;25635;51.146;17.162;2022-11-09T10:28:55;23.35;;;15.60;;
38805;SDS011;25635;51.146;17.162;2022-11-09T10:31:28;24.20;;;15.38;;
38805;SDS011;25635;51.146;17.162;2022-11-09T10:33:59;22.82;;;15.23;;
38805;SDS011;25635;51.146;17.162;2022-11-09T10:36:52;23.00;;;16.50;;
38805;SDS011;25635;51.146;17.162;2022-11-09T10:39:23;24.67;;;16.73;;
38805;SDS011;25635;51.146;17.162;2022-11-09T10:41:54;23.83;;;16.65;;
38805;SDS011;25635;51.146;17.162;2022-11-09T10:44:20;24.05;;;16.77;;
38805;SDS011;25635;51.146;17.162;2022-11-09T10:47:04;23.38;;;16.12;;
38805;SDS011;25635;51.146;17.162;2022-11-09T10:49:34;23.30;;;14.73;;
38805;SDS011;25635;51.146;17.162;2022-11-09T10:52:01;24.63;;;15.60;;
38805;SDS011;25635;51.146;17.162;2022-11-09T10:54:29;23.57;;;14.85;;
38805;SDS011;25635;51.146;17.162;2022-11-09T10:57:13;22.27;;;14.78;;
38805;SDS011;25635;51.146;17.162;2022-11-09T10:59:55;25.32;;;15.72;;
38805;SDS011;25635;51.146;17.162;2022-11-09T11:07:37;23.38;;;16.00;;
38805;SDS011;25635;51.146;17.162;2022-11-09T11:10:10;24.00;;;16.15;;
38805;SDS011;25635;51.146;17.162;2022-11-09T11:12:51;22.73;;;16.05;;
38805;SDS011;25635;51.146;17.162;2022-11-09T11:15:28;24.43;;;16.30;;
38805;SDS011;25635;51.146;17.162;2022-11-09T11:18:01;21.60;;;15.70;;
38805;SDS011;25635;51.146;17.162;2022-11-09T11:20:35;24.20;;;15.23;;
38805;SDS011;25635;51.146;17.162;2022-11-09T11:25:57;21.82;;;14.73;;
38805;SDS011;25635;51.146;17.162;2022-11-09T11:28:32;20.88;;;15.72;;
38805;SDS011;25635;51.146;17.162;2022-11-09T11:31:11;21.60;;;14.30;;
38805;SDS011;25635;51.146;17.162;2022-11-09T11:33:42;22.15;;;15.10;;
38805;SDS011;25635;51.146;17.162;2022-11-09T11:39:30;22.73;;;15.58;;
38805;SDS011;25635;51.146;17.162;2022-11-09T11:42:08;22.62;;;14.78;;
38805;SDS011;25635;51.146;17.162;2022-11-09T11:47:56;20.55;;;13.85;;
38805;SDS011;25635;51.146;17.162;2022-11-09T11:50:30;24.70;;;15.25;;
38805;SDS011;25635;51.146;17.162;2022-11-09T11:56:35;23.25;;;15.50;;
38805;SDS011;25635;51.146;17.162;2022-11-09T11:59:20;21.05;;;15.15;;
38805;SDS011;25635;51.146;17.162;2022-11-09T12:07:58;22.30;;;14.30;;
38805;SDS011;25635;51.146;17.162;2022-11-09T12:34:24;21.75;;;14.18;;
38805;SDS011;25635;51.146;17.162;2022-11-09T12:37:00;19.73;;;14.93;;
38805;SDS011;25635;51.146;17.162;2022-11-09T12:39:49;22.50;;;14.83;;
38805;SDS011;25635;51.146;17.162;2022-11-09T12:42:33;21.55;;;13.95;;
38805;SDS011;25635;51.146;17.162;2022-11-09T12:45:21;20.02;;;13.13;;
38805;SDS011;25635;51.146;17.162;2022-11-09T12:47:49;17.90;;;12.68;;
38805;SDS011;25635;51.146;17.162;2022-11-09T12:50:18;17.35;;;12.47;;
38805;SDS011;25635;51.146;17.162;2022-11-09T12:52:48;21.17;;;13.25;;
38805;SDS011;25635;51.146;17.162;2022-11-09T12:55:31;20.08;;;13.88;;
38805;SDS011;25635;51.146;17.162;2022-11-09T12:58:18;23.80;;;15.10;;
38805;SDS011;25635;51.146;17.162;2022-11-09T13:00:51;22.02;;;14.20;;
38805;SDS011;25635;51.146;17.162;2022-11-09T13:03:24;21.27;;;13.93;;
38805;SDS011;25635;51.146;17.162;2022-11-09T13:06:07;19.45;;;14.40;;
38805;SDS011;25635;51.146;17.162;2022-11-09T13:08:42;19.40;;;14.30;;
38805;SDS011;25635;51.146;17.162;2022-11-09T13:16:55;19.75;;;13.78;;
38805;SDS011;25635;51.146;17.162;2022-11-09T13:24:50;20.75;;;14.63;;
38805;SDS011;25635;51.146;17.162;2022-11-09T13:27:41;21.40;;;14.47;;
38805;SDS011;25635;51.146;17.162;2022-11-09T13:40:55;21.62;;;14.55;;
38805;SDS011;25635;51.146;17.162;2022-11-09T13:48:55;21.05;;;14.43;;
38805;SDS011;25635;51.146;17.162;2022-11-09T13:51:22;20.97;;;13.72;;
38805;SDS011;25635;51.146;17.162;2022-11-09T13:54:31;20.25;;;14.05;;
38805;SDS011;25635;51.146;17.162;2022-11-09T13:57:03;25.50;;;14.85;;
38805;SDS011;25635;51.146;17.162;2022-11-09T13:59:32;23.70;;;14.98;;
38805;SDS011;25635;51.146;17.162;2022-11-09T14:02:21;25.30;;;15.45;;
38805;SDS011;25635;51.146;17.162;2022-11-09T14:04:47;26.77;;;15.75;;
38805;SDS011;25635;51.146;17.162;2022-11-09T14:07:24;23.85;;;15.72;;
38805;SDS011;25635;51.146;17.162;2022-11-09T14:18:39;25.40;;;17.32;;
38805;SDS011;25635;51.146;17.162;2022-11-09T14:22:10;28.10;;;18.23;;
38805;SDS011;25635;51.146;17.162;2022-11-09T14:24:20;28.42;;;18.45;;
38805;SDS011;25635;51.146;17.162;2022-11-09T14:32:27;29.40;;;19.10;;
38805;SDS011;25635;51.146;17.162;2022-11-09T14:37:52;28.10;;;18.48;;
38805;SDS011;25635;51.146;17.162;2022-11-09T14:40:22;32.90;;;21.80;;
38805;SDS011;25635;51.146;17.162;2022-11-09T14:43:05;31.85;;;22.50;;
38805;SDS011;25635;51.146;17.162;2022-11-09T14:45:55;33.83;;;21.57;;
38805;SDS011;25635;51.146;17.162;2022-11-09T14:48:24;36.25;;;24.87;;
38805;SDS011;25635;51.146;17.162;2022-11-09T14:50:51;39.30;;;26.00;;
38805;SDS011;25635;51.146;17.162;2022-11-09T14:53:25;34.98;;;24.87;;
38805;SDS011;25635;51.146;17.162;2022-11-09T14:56:06;30.43;;;21.48;;
38805;SDS011;25635;51.146;17.162;2022-11-09T14:58:37;31.80;;;19.87;;
38805;SDS011;25635;51.146;17.162;2022-11-09T15:01:07;31.48;;;19.67;;
38805;SDS011;25635;51.146;17.162;2022-11-09T15:04:04;29.07;;;19.35;;
38805;SDS011;25635;51.146;17.162;2022-11-09T15:06:34;31.45;;;19.92;;
38805;SDS011;25635;51.146;17.162;2022-11-09T15:09:04;30.97;;;20.12;;
38805;SDS011;25635;51.146;17.162;2022-11-09T15:11:36;31.40;;;20.35;;
38805;SDS011;25635;51.146;17.162;2022-11-09T15:14:12;35.03;;;22.13;;
38805;SDS011;25635;51.146;17.162;2022-11-09T15:16:43;38.13;;;22.20;;
38805;SDS011;25635;51.146;17.162;2022-11-09T15:19:23;33.40;;;21.77;;
38805;SDS011;25635;51.146;17.162;2022-11-09T15:21:56;36.73;;;22.83;;
38805;SDS011;25635;51.146;17.162;2022-11-09T15:24:24;36.63;;;22.40;;
38805;SDS011;25635;51.146;17.162;2022-11-09T15:26:53;33.67;;;21.35;;
38805;SDS011;25635;51.146;17.162;2022-11-09T15:29:25;36.15;;;23.42;;
38805;SDS011;25635;51.146;17.162;2022-11-09T15:34:51;36.60;;;23.25;;
38805;SDS011;25635;51.146;17.162;2022-11-09T15:37:24;36.98;;;23.83;;
38805;SDS011;25635;51.146;17.162;2022-11-09T15:39:56;36.13;;;23.20;;
38805;SDS011;25635;51.146;17.162;2022-11-09T15:42:24;38.13;;;23.52;;
38805;SDS011;25635;51.146;17.162;2022-11-09T15:44:52;35.17;;;23.40;;
38805;SDS011;25635;51.146;17.162;2022-11-09T15:47:29;33.67;;;21.12;;
38805;SDS011;25635;51.146;17.162;2022-11-09T15:50:03;35.68;;;22.42;;
38805;SDS011;25635;51.146;17.162;2022-11-09T15:52:33;32.55;;;21.37;;
38805;SDS011;25635;51.146;17.162;2022-11-09T15:54:59;34.45;;;22.30;;
38805;SDS011;25635;51.146;17.162;2022-11-09T15:57:25;34.33;;;21.02;;
38805;SDS011;25635;51.146;17.162;2022-11-09T15:59:51;34.70;;;22.40;;
38805;SDS011;25635;51.146;17.162;2022-11-09T16:02:18;39.23;;;23.83;;
38805;SDS011;25635;51.146;17.162;2022-11-09T16:04:44;36.53;;;23.02;;
38805;SDS011;25635;51.146;17.162;2022-11-09T16:07:15;36.10;;;22.87;;
38805;SDS011;25635;51.146;17.162;2022-11-09T16:09:41;35.55;;;21.85;;
38805;SDS011;25635;51.146;17.162;2022-11-09T16:12:08;37.30;;;23.40;;
38805;SDS011;25635;51.146;17.162;2022-11-09T16:14:35;41.90;;;27.90;;
38805;SDS011;25635;51.146;17.162;2022-11-09T16:17:01;48.23;;;31.73;;